sensor_id;sensor_type;location;lat;lon;timestamp;P1;durP1;ratioP1;P2;durP2;ratioP2
13795;SDS011;40911;51.552;9.874;2023-12-22T00:02:05;17.48;;;4.30;;
13795;SDS011;40911;51.552;9.874;2023-12-22T00:04:28;20.42;;;4.13;;
13795;SDS011;40911;51.552;9.874;2023-12-22T00:06:49;17.85;;;4.10;;
13795;SDS011;40911;51.552;9.874;2023-12-22T00:09:12;16.02;;;4.32;;
13795;SDS011;40911;51.552;9.874;2023-12-22T00:11:33;23.48;;;5.03;;
13795;SDS011;40911;51.552;9.874;2023-12-22T00:13:55;20.17;;;4.47;;
13795;SDS011;40911;51.552;9.874;2023-12-22T00:16:17;21.98;;;4.47;;
13795;SDS011;40911;51.552;9.874;2023-12-22T00:18:39;16.92;;;4.10;;
13795;SDS011;40911;51.552;9.874;2023-12-22T00:21:02;21.30;;;4.00;;
13795;SDS011;40911;51.552;9.874;2023-12-22T00:23:25;13.77;;;3.95;;
13795;SDS011;40911;51.552;9.874;2023-12-22T00:25:46;14.60;;;3.70;;
13795;SDS011;40911;51.552;9.874;2023-12-22T00:28:08;12.85;;;4.00;;
13795;SDS011;40911;51.552;9.874;2023-12-22T00:30:29;14.15;;;4.32;;
13795;SDS011;40911;51.552;9.874;2023-12-22T00:32:51;18.92;;;3.60;;
13795;SDS011;40911;51.552;9.874;2023-12-22T00:35:13;16.58;;;4.20;;
13795;SDS011;40911;51.552;9.874;2023-12-22T00:37:36;18.02;;;4.03;;
13795;SDS011;40911;51.552;9.874;2023-12-22T00:39:57;13.32;;;3.63;;
13795;SDS011;40911;51.552;9.874;2023-12-22T00:44:40;13.48;;;4.10;;
13795;SDS011;40911;51.552;9.874;2023-12-22T00:47:02;15.68;;;3.80;;
13795;SDS011;40911;51.552;9.874;2023-12-22T00:49:24;11.88;;;3.55;;
13795;SDS011;40911;51.552;9.874;2023-12-22T00:51:46;15.60;;;3.58;;
13795;SDS011;40911;51.552;9.874;2023-12-22T00:54:09;10.43;;;3.95;;
13795;SDS011;40911;51.552;9.874;2023-12-22T00:56:30;18.38;;;4.05;;
13795;SDS011;40911;51.552;9.874;2023-12-22T00:58:52;14.68;;;3.55;;
13795;SDS011;40911;51.552;9.874;2023-12-22T01:01:14;13.68;;;4.18;;
13795;SDS011;40911;51.552;9.874;2023-12-22T01:05:57;14.88;;;3.60;;
13795;SDS011;40911;51.552;9.874;2023-12-22T01:08:18;10.88;;;3.92;;
13795;SDS011;40911;51.552;9.874;2023-12-22T01:10:42;13.27;;;4.00;;
13795;SDS011;40911;51.552;9.874;2023-12-22T01:13:03;16.38;;;4.22;;
13795;SDS011;40911;51.552;9.874;2023-12-22T01:15:25;17.77;;;4.28;;
13795;SDS011;40911;51.552;9.874;2023-12-22T01:17:47;12.82;;;3.75;;
13795;SDS011;40911;51.552;9.874;2023-12-22T01:20:09;12.50;;;3.30;;
13795;SDS011;40911;51.552;9.874;2023-12-22T01:22:31;10.88;;;3.58;;
13795;SDS011;40911;51.552;9.874;2023-12-22T01:24:54;13.00;;;3.80;;
13795;SDS011;40911;51.552;9.874;2023-12-22T01:27:17;10.20;;;3.42;;
13795;SDS011;40911;51.552;9.874;2023-12-22T01:29:39;12.93;;;3.70;;
13795;SDS011;40911;51.552;9.874;2023-12-22T01:32:01;16.38;;;3.65;;
13795;SDS011;40911;51.552;9.874;2023-12-22T01:34:23;17.23;;;4.05;;
13795;SDS011;40911;51.552;9.874;2023-12-22T01:36:45;14.07;;;3.42;;
13795;SDS011;40911;51.552;9.874;2023-12-22T01:39:06;17.67;;;3.58;;
13795;SDS011;40911;51.552;9.874;2023-12-22T01:41:29;20.95;;;3.70;;
13795;SDS011;40911;51.552;9.874;2023-12-22T01:43:52;13.82;;;3.10;;
13795;SDS011;40911;51.552;9.874;2023-12-22T01:46:13;12.52;;;3.83;;
13795;SDS011;40911;51.552;9.874;2023-12-22T01:48:36;12.55;;;3.47;;
13795;SDS011;40911;51.552;9.874;2023-12-22T01:50:58;9.50;;;4.05;;
13795;SDS011;40911;51.552;9.874;2023-12-22T01:53:22;12.15;;;3.72;;
13795;SDS011;40911;51.552;9.874;2023-12-22T01:55:47;11.45;;;3.95;;
13795;SDS011;40911;51.552;9.874;2023-12-22T01:58:11;12.77;;;3.40;;
13795;SDS011;40911;51.552;9.874;2023-12-22T02:02:55;8.57;;;3.08;;
13795;SDS011;40911;51.552;9.874;2023-12-22T02:05:17;14.98;;;4.10;;
13795;SDS011;40911;51.552;9.874;2023-12-22T02:07:40;16.15;;;3.83;;
13795;SDS011;40911;51.552;9.874;2023-12-22T02:10:02;8.18;;;3.00;;
13795;SDS011;40911;51.552;9.874;2023-12-22T02:12:25;16.80;;;4.38;;
13795;SDS011;40911;51.552;9.874;2023-12-22T02:14:46;13.82;;;3.80;;
13795;SDS011;40911;51.552;9.874;2023-12-22T02:17:11;9.93;;;3.67;;
13795;SDS011;40911;51.552;9.874;2023-12-22T02:19:42;11.30;;;3.33;;
13795;SDS011;40911;51.552;9.874;2023-12-22T02:22:05;12.40;;;3.38;;
13795;SDS011;40911;51.552;9.874;2023-12-22T02:24:29;10.35;;;3.58;;
13795;SDS011;40911;51.552;9.874;2023-12-22T02:26:52;8.88;;;3.50;;
13795;SDS011;40911;51.552;9.874;2023-12-22T02:29:17;4.40;;;2.47;;
13795;SDS011;40911;51.552;9.874;2023-12-22T02:31:40;11.25;;;3.35;;
13795;SDS011;40911;51.552;9.874;2023-12-22T02:34:07;3.90;;;2.78;;
13795;SDS011;40911;51.552;9.874;2023-12-22T02:36:35;6.00;;;2.65;;
13795;SDS011;40911;51.552;9.874;2023-12-22T02:38:58;3.45;;;2.75;;
13795;SDS011;40911;51.552;9.874;2023-12-22T02:41:23;9.70;;;3.28;;
13795;SDS011;40911;51.552;9.874;2023-12-22T02:43:44;5.10;;;2.75;;
13795;SDS011;40911;51.552;9.874;2023-12-22T02:46:12;2.70;;;2.50;;
13795;SDS011;40911;51.552;9.874;2023-12-22T02:48:35;4.18;;;2.80;;
13795;SDS011;40911;51.552;9.874;2023-12-22T02:50:57;2.85;;;2.60;;
13795;SDS011;40911;51.552;9.874;2023-12-22T02:53:18;2.92;;;2.53;;
13795;SDS011;40911;51.552;9.874;2023-12-22T02:55:40;3.53;;;2.67;;
13795;SDS011;40911;51.552;9.874;2023-12-22T02:58:03;5.55;;;2.70;;
13795;SDS011;40911;51.552;9.874;2023-12-22T03:00:25;5.55;;;3.03;;
13795;SDS011;40911;51.552;9.874;2023-12-22T03:05:08;3.65;;;2.80;;
13795;SDS011;40911;51.552;9.874;2023-12-22T03:09:51;5.07;;;2.80;;
13795;SDS011;40911;51.552;9.874;2023-12-22T03:12:13;5.60;;;2.70;;
13795;SDS011;40911;51.552;9.874;2023-12-22T03:16:58;5.53;;;2.85;;
13795;SDS011;40911;51.552;9.874;2023-12-22T03:19:19;9.40;;;3.60;;
13795;SDS011;40911;51.552;9.874;2023-12-22T03:21:42;5.28;;;2.85;;
13795;SDS011;40911;51.552;9.874;2023-12-22T03:24:04;8.63;;;3.20;;
13795;SDS011;40911;51.552;9.874;2023-12-22T03:26:26;5.85;;;3.25;;
13795;SDS011;40911;51.552;9.874;2023-12-22T03:28:48;9.93;;;3.50;;
13795;SDS011;40911;51.552;9.874;2023-12-22T03:31:11;8.98;;;3.08;;
13795;SDS011;40911;51.552;9.874;2023-12-22T03:33:32;12.55;;;3.85;;
13795;SDS011;40911;51.552;9.874;2023-12-22T03:35:54;7.80;;;3.20;;
13795;SDS011;40911;51.552;9.874;2023-12-22T03:38:16;13.38;;;4.68;;
13795;SDS011;40911;51.552;9.874;2023-12-22T03:40:37;11.85;;;4.30;;
13795;SDS011;40911;51.552;9.874;2023-12-22T03:42:59;8.75;;;4.00;;
13795;SDS011;40911;51.552;9.874;2023-12-22T03:47:45;7.85;;;3.35;;
13795;SDS011;40911;51.552;9.874;2023-12-22T03:50:07;9.70;;;3.08;;
13795;SDS011;40911;51.552;9.874;2023-12-22T03:52:29;9.60;;;3.90;;
13795;SDS011;40911;51.552;9.874;2023-12-22T03:57:12;15.27;;;3.53;;
13795;SDS011;40911;51.552;9.874;2023-12-22T04:01:55;10.00;;;3.45;;
13795;SDS011;40911;51.552;9.874;2023-12-22T04:04:22;9.85;;;3.45;;
13795;SDS011;40911;51.552;9.874;2023-12-22T04:06:47;13.05;;;4.00;;
13795;SDS011;40911;51.552;9.874;2023-12-22T04:09:08;21.25;;;4.63;;
13795;SDS011;40911;51.552;9.874;2023-12-22T04:11:29;8.83;;;3.17;;
13795;SDS011;40911;51.552;9.874;2023-12-22T04:13:51;15.95;;;3.80;;
13795;SDS011;40911;51.552;9.874;2023-12-22T04:16:12;8.43;;;3.60;;
13795;SDS011;40911;51.552;9.874;2023-12-22T04:18:36;11.55;;;3.90;;
13795;SDS011;40911;51.552;9.874;2023-12-22T04:23:21;10.05;;;3.53;;
13795;SDS011;40911;51.552;9.874;2023-12-22T04:28:04;14.70;;;3.58;;
13795;SDS011;40911;51.552;9.874;2023-12-22T04:30:26;12.70;;;3.95;;
13795;SDS011;40911;51.552;9.874;2023-12-22T04:32:48;11.98;;;3.42;;
13795;SDS011;40911;51.552;9.874;2023-12-22T04:35:09;8.98;;;2.97;;
13795;SDS011;40911;51.552;9.874;2023-12-22T04:37:39;13.25;;;3.85;;
13795;SDS011;40911;51.552;9.874;2023-12-22T04:40:00;18.83;;;3.78;;
13795;SDS011;40911;51.552;9.874;2023-12-22T04:42:23;10.00;;;3.47;;
13795;SDS011;40911;51.552;9.874;2023-12-22T04:44:45;12.63;;;3.40;;
13795;SDS011;40911;51.552;9.874;2023-12-22T04:47:07;10.23;;;3.40;;
13795;SDS011;40911;51.552;9.874;2023-12-22T04:49:28;13.10;;;3.42;;
13795;SDS011;40911;51.552;9.874;2023-12-22T04:51:50;10.00;;;3.95;;
13795;SDS011;40911;51.552;9.874;2023-12-22T04:54:13;12.68;;;4.15;;
13795;SDS011;40911;51.552;9.874;2023-12-22T04:56:35;15.82;;;4.22;;
13795;SDS011;40911;51.552;9.874;2023-12-22T05:01:18;9.30;;;4.28;;
13795;SDS011;40911;51.552;9.874;2023-12-22T05:03:40;14.18;;;3.80;;
13795;SDS011;40911;51.552;9.874;2023-12-22T05:08:24;14.30;;;3.58;;
13795;SDS011;40911;51.552;9.874;2023-12-22T05:10:47;6.80;;;2.83;;
13795;SDS011;40911;51.552;9.874;2023-12-22T05:13:09;6.97;;;3.20;;
13795;SDS011;40911;51.552;9.874;2023-12-22T05:17:52;12.23;;;3.10;;
13795;SDS011;40911;51.552;9.874;2023-12-22T05:22:36;12.43;;;3.13;;
13795;SDS011;40911;51.552;9.874;2023-12-22T05:24:58;6.63;;;2.97;;
13795;SDS011;40911;51.552;9.874;2023-12-22T05:27:21;8.05;;;2.92;;
13795;SDS011;40911;51.552;9.874;2023-12-22T05:29:43;4.57;;;2.47;;
13795;SDS011;40911;51.552;9.874;2023-12-22T05:36:49;9.38;;;3.47;;
13795;SDS011;40911;51.552;9.874;2023-12-22T05:39:10;8.82;;;2.65;;
13795;SDS011;40911;51.552;9.874;2023-12-22T05:41:33;6.13;;;2.63;;
13795;SDS011;40911;51.552;9.874;2023-12-22T05:43:57;5.57;;;2.92;;
13795;SDS011;40911;51.552;9.874;2023-12-22T05:46:19;3.97;;;2.40;;
13795;SDS011;40911;51.552;9.874;2023-12-22T05:51:02;4.55;;;2.45;;
13795;SDS011;40911;51.552;9.874;2023-12-22T05:53:27;4.07;;;2.72;;
13795;SDS011;40911;51.552;9.874;2023-12-22T05:55:49;3.47;;;2.72;;
13795;SDS011;40911;51.552;9.874;2023-12-22T05:58:10;5.10;;;3.00;;
13795;SDS011;40911;51.552;9.874;2023-12-22T06:02:55;6.53;;;2.75;;
13795;SDS011;40911;51.552;9.874;2023-12-22T06:05:17;5.97;;;2.55;;
13795;SDS011;40911;51.552;9.874;2023-12-22T06:10:00;3.90;;;2.78;;
13795;SDS011;40911;51.552;9.874;2023-12-22T06:12:21;3.15;;;2.40;;
13795;SDS011;40911;51.552;9.874;2023-12-22T06:14:43;10.05;;;3.17;;
13795;SDS011;40911;51.552;9.874;2023-12-22T06:17:08;3.15;;;2.53;;
13795;SDS011;40911;51.552;9.874;2023-12-22T06:19:30;6.80;;;2.60;;
13795;SDS011;40911;51.552;9.874;2023-12-22T06:21:52;7.25;;;2.72;;
13795;SDS011;40911;51.552;9.874;2023-12-22T06:28:57;4.28;;;2.80;;
13795;SDS011;40911;51.552;9.874;2023-12-22T06:31:20;5.53;;;2.85;;
13795;SDS011;40911;51.552;9.874;2023-12-22T06:33:44;3.60;;;2.60;;
13795;SDS011;40911;51.552;9.874;2023-12-22T06:36:17;3.03;;;2.72;;
13795;SDS011;40911;51.552;9.874;2023-12-22T06:38:39;5.18;;;3.20;;
13795;SDS011;40911;51.552;9.874;2023-12-22T06:43:27;6.40;;;2.78;;
13795;SDS011;40911;51.552;9.874;2023-12-22T06:45:49;4.82;;;2.60;;
13795;SDS011;40911;51.552;9.874;2023-12-22T06:48:16;3.97;;;3.45;;
13795;SDS011;40911;51.552;9.874;2023-12-22T06:50:40;4.75;;;2.70;;
13795;SDS011;40911;51.552;9.874;2023-12-22T06:53:05;7.60;;;2.72;;
13795;SDS011;40911;51.552;9.874;2023-12-22T06:55:27;6.15;;;2.88;;
13795;SDS011;40911;51.552;9.874;2023-12-22T07:00:11;4.82;;;2.60;;
13795;SDS011;40911;51.552;9.874;2023-12-22T07:02:33;9.18;;;2.97;;
13795;SDS011;40911;51.552;9.874;2023-12-22T07:05:01;9.95;;;3.03;;
13795;SDS011;40911;51.552;9.874;2023-12-22T07:07:28;10.63;;;3.03;;
13795;SDS011;40911;51.552;9.874;2023-12-22T07:09:51;9.63;;;3.22;;
13795;SDS011;40911;51.552;9.874;2023-12-22T07:14:34;6.75;;;2.88;;
13795;SDS011;40911;51.552;9.874;2023-12-22T07:19:20;8.32;;;3.60;;
13795;SDS011;40911;51.552;9.874;2023-12-22T07:21:42;9.07;;;3.08;;
13795;SDS011;40911;51.552;9.874;2023-12-22T07:26:27;8.63;;;3.72;;
13795;SDS011;40911;51.552;9.874;2023-12-22T07:31:11;17.15;;;3.30;;
13795;SDS011;40911;51.552;9.874;2023-12-22T07:33:32;9.48;;;3.20;;
13795;SDS011;40911;51.552;9.874;2023-12-22T07:35:54;7.70;;;3.17;;
13795;SDS011;40911;51.552;9.874;2023-12-22T07:38:16;6.85;;;2.92;;
13795;SDS011;40911;51.552;9.874;2023-12-22T07:40:39;11.18;;;2.78;;
13795;SDS011;40911;51.552;9.874;2023-12-22T07:43:00;11.77;;;4.07;;
13795;SDS011;40911;51.552;9.874;2023-12-22T07:45:23;15.52;;;3.42;;
13795;SDS011;40911;51.552;9.874;2023-12-22T07:47:44;5.35;;;3.00;;
13795;SDS011;40911;51.552;9.874;2023-12-22T07:50:06;6.95;;;2.88;;
13795;SDS011;40911;51.552;9.874;2023-12-22T07:52:29;6.15;;;2.70;;
13795;SDS011;40911;51.552;9.874;2023-12-22T07:54:49;13.90;;;3.70;;
13795;SDS011;40911;51.552;9.874;2023-12-22T07:57:13;7.95;;;2.97;;
13795;SDS011;40911;51.552;9.874;2023-12-22T07:59:35;9.73;;;3.47;;
13795;SDS011;40911;51.552;9.874;2023-12-22T08:01:57;13.10;;;2.80;;
13795;SDS011;40911;51.552;9.874;2023-12-22T08:04:19;8.52;;;2.75;;
13795;SDS011;40911;51.552;9.874;2023-12-22T08:06:41;14.15;;;3.30;;
13795;SDS011;40911;51.552;9.874;2023-12-22T08:09:03;10.32;;;3.08;;
13795;SDS011;40911;51.552;9.874;2023-12-22T08:11:24;9.50;;;3.20;;
13795;SDS011;40911;51.552;9.874;2023-12-22T08:13:48;8.57;;;2.90;;
13795;SDS011;40911;51.552;9.874;2023-12-22T08:16:10;10.57;;;3.17;;
13795;SDS011;40911;51.552;9.874;2023-12-22T08:18:31;8.95;;;3.47;;
13795;SDS011;40911;51.552;9.874;2023-12-22T08:20:53;14.20;;;2.83;;
13795;SDS011;40911;51.552;9.874;2023-12-22T08:23:14;8.07;;;3.03;;
13795;SDS011;40911;51.552;9.874;2023-12-22T08:25:36;11.48;;;3.75;;
13795;SDS011;40911;51.552;9.874;2023-12-22T08:27:58;10.68;;;3.53;;
13795;SDS011;40911;51.552;9.874;2023-12-22T08:30:22;11.27;;;3.20;;
13795;SDS011;40911;51.552;9.874;2023-12-22T08:32:44;4.85;;;2.70;;
13795;SDS011;40911;51.552;9.874;2023-12-22T08:35:06;9.13;;;3.40;;
13795;SDS011;40911;51.552;9.874;2023-12-22T08:37:28;11.32;;;2.67;;
13795;SDS011;40911;51.552;9.874;2023-12-22T08:39:50;10.60;;;2.75;;
13795;SDS011;40911;51.552;9.874;2023-12-22T08:42:12;10.32;;;3.13;;
13795;SDS011;40911;51.552;9.874;2023-12-22T08:46:59;10.10;;;3.35;;
13795;SDS011;40911;51.552;9.874;2023-12-22T08:49:21;8.85;;;3.13;;
13795;SDS011;40911;51.552;9.874;2023-12-22T08:51:42;6.55;;;3.33;;
13795;SDS011;40911;51.552;9.874;2023-12-22T08:54:04;10.88;;;3.10;;
13795;SDS011;40911;51.552;9.874;2023-12-22T08:56:26;14.38;;;3.25;;
13795;SDS011;40911;51.552;9.874;2023-12-22T08:58:48;13.65;;;4.07;;
13795;SDS011;40911;51.552;9.874;2023-12-22T09:01:14;6.85;;;2.80;;
13795;SDS011;40911;51.552;9.874;2023-12-22T09:03:37;13.30;;;2.92;;
13795;SDS011;40911;51.552;9.874;2023-12-22T09:06:03;15.15;;;3.28;;
13795;SDS011;40911;51.552;9.874;2023-12-22T09:08:25;10.07;;;2.80;;
13795;SDS011;40911;51.552;9.874;2023-12-22T09:10:47;9.95;;;3.10;;
13795;SDS011;40911;51.552;9.874;2023-12-22T09:13:10;8.48;;;3.15;;
13795;SDS011;40911;51.552;9.874;2023-12-22T09:15:32;9.73;;;4.22;;
13795;SDS011;40911;51.552;9.874;2023-12-22T09:17:54;8.63;;;3.17;;
13795;SDS011;40911;51.552;9.874;2023-12-22T09:22:38;13.07;;;3.33;;
13795;SDS011;40911;51.552;9.874;2023-12-22T09:25:12;9.95;;;2.92;;
13795;SDS011;40911;51.552;9.874;2023-12-22T09:27:34;10.93;;;2.80;;
13795;SDS011;40911;51.552;9.874;2023-12-22T09:29:56;11.30;;;3.22;;
13795;SDS011;40911;51.552;9.874;2023-12-22T09:32:20;14.02;;;3.35;;
13795;SDS011;40911;51.552;9.874;2023-12-22T09:37:05;11.68;;;3.97;;
13795;SDS011;40911;51.552;9.874;2023-12-22T09:39:26;9.13;;;2.70;;
13795;SDS011;40911;51.552;9.874;2023-12-22T09:41:49;12.65;;;3.05;;
13795;SDS011;40911;51.552;9.874;2023-12-22T09:44:11;10.43;;;3.00;;
13795;SDS011;40911;51.552;9.874;2023-12-22T09:46:33;6.57;;;2.85;;
13795;SDS011;40911;51.552;9.874;2023-12-22T09:48:56;7.15;;;3.03;;
13795;SDS011;40911;51.552;9.874;2023-12-22T09:53:53;8.52;;;3.17;;
13795;SDS011;40911;51.552;9.874;2023-12-22T09:56:26;15.82;;;3.10;;
13795;SDS011;40911;51.552;9.874;2023-12-22T09:58:49;8.48;;;3.05;;
13795;SDS011;40911;51.552;9.874;2023-12-22T10:01:12;10.05;;;2.67;;
13795;SDS011;40911;51.552;9.874;2023-12-22T10:03:35;9.20;;;2.92;;
13795;SDS011;40911;51.552;9.874;2023-12-22T10:05:58;9.10;;;3.08;;
13795;SDS011;40911;51.552;9.874;2023-12-22T10:08:20;10.57;;;3.20;;
13795;SDS011;40911;51.552;9.874;2023-12-22T10:10:47;12.07;;;2.90;;
13795;SDS011;40911;51.552;9.874;2023-12-22T10:13:08;8.30;;;3.00;;
13795;SDS011;40911;51.552;9.874;2023-12-22T10:15:32;8.77;;;3.33;;
13795;SDS011;40911;51.552;9.874;2023-12-22T10:17:55;10.70;;;3.50;;
13795;SDS011;40911;51.552;9.874;2023-12-22T10:20:17;7.25;;;3.05;;
13795;SDS011;40911;51.552;9.874;2023-12-22T10:25:00;8.18;;;3.00;;
13795;SDS011;40911;51.552;9.874;2023-12-22T10:27:35;9.95;;;2.65;;
13795;SDS011;40911;51.552;9.874;2023-12-22T10:29:57;8.02;;;2.67;;
13795;SDS011;40911;51.552;9.874;2023-12-22T10:34:41;3.08;;;2.17;;
13795;SDS011;40911;51.552;9.874;2023-12-22T10:41:48;2.80;;;2.50;;
13795;SDS011;40911;51.552;9.874;2023-12-22T10:44:12;2.40;;;2.20;;
13795;SDS011;40911;51.552;9.874;2023-12-22T10:46:34;5.35;;;2.60;;
13795;SDS011;40911;51.552;9.874;2023-12-22T10:48:56;2.67;;;2.22;;
13795;SDS011;40911;51.552;9.874;2023-12-22T10:51:18;3.33;;;2.30;;
13795;SDS011;40911;51.552;9.874;2023-12-22T10:56:02;4.13;;;2.45;;
13795;SDS011;40911;51.552;9.874;2023-12-22T10:58:26;4.82;;;2.67;;
13795;SDS011;40911;51.552;9.874;2023-12-22T11:00:51;7.45;;;2.58;;
13795;SDS011;40911;51.552;9.874;2023-12-22T11:03:16;5.75;;;2.50;;
13795;SDS011;40911;51.552;9.874;2023-12-22T11:05:39;9.32;;;2.80;;
13795;SDS011;40911;51.552;9.874;2023-12-22T11:08:04;2.60;;;2.40;;
13795;SDS011;40911;51.552;9.874;2023-12-22T11:10:30;5.82;;;3.05;;
13795;SDS011;40911;51.552;9.874;2023-12-22T11:12:52;6.45;;;2.50;;
13795;SDS011;40911;51.552;9.874;2023-12-22T11:15:28;7.65;;;2.63;;
13795;SDS011;40911;51.552;9.874;2023-12-22T11:17:52;6.75;;;2.80;;
13795;SDS011;40911;51.552;9.874;2023-12-22T11:20:17;3.40;;;2.20;;
13795;SDS011;40911;51.552;9.874;2023-12-22T11:22:40;2.80;;;2.25;;
13795;SDS011;40911;51.552;9.874;2023-12-22T11:25:03;6.18;;;2.53;;
13795;SDS011;40911;51.552;9.874;2023-12-22T11:27:28;7.13;;;2.92;;
13795;SDS011;40911;51.552;9.874;2023-12-22T11:29:50;8.45;;;3.00;;
13795;SDS011;40911;51.552;9.874;2023-12-22T11:32:12;5.35;;;2.92;;
13795;SDS011;40911;51.552;9.874;2023-12-22T11:34:38;6.40;;;2.60;;
13795;SDS011;40911;51.552;9.874;2023-12-22T11:37:01;6.38;;;2.97;;
13795;SDS011;40911;51.552;9.874;2023-12-22T11:39:25;6.50;;;2.30;;
13795;SDS011;40911;51.552;9.874;2023-12-22T11:44:09;3.50;;;2.10;;
13795;SDS011;40911;51.552;9.874;2023-12-22T11:46:31;2.10;;;2.00;;
13795;SDS011;40911;51.552;9.874;2023-12-22T11:48:54;3.15;;;2.10;;
13795;SDS011;40911;51.552;9.874;2023-12-22T11:51:18;3.17;;;2.30;;
13795;SDS011;40911;51.552;9.874;2023-12-22T11:53:42;3.75;;;2.20;;
13795;SDS011;40911;51.552;9.874;2023-12-22T11:56:04;5.07;;;2.30;;
13795;SDS011;40911;51.552;9.874;2023-12-22T11:58:38;4.93;;;2.28;;
13795;SDS011;40911;51.552;9.874;2023-12-22T12:01:01;4.05;;;2.10;;
13795;SDS011;40911;51.552;9.874;2023-12-22T12:03:23;8.85;;;2.42;;
13795;SDS011;40911;51.552;9.874;2023-12-22T12:05:46;3.00;;;2.10;;
13795;SDS011;40911;51.552;9.874;2023-12-22T12:08:11;4.15;;;2.40;;
13795;SDS011;40911;51.552;9.874;2023-12-22T12:10:50;5.53;;;2.50;;
13795;SDS011;40911;51.552;9.874;2023-12-22T12:13:14;5.10;;;2.25;;
13795;SDS011;40911;51.552;9.874;2023-12-22T12:15:37;3.08;;;2.30;;
13795;SDS011;40911;51.552;9.874;2023-12-22T12:17:59;4.55;;;2.60;;
13795;SDS011;40911;51.552;9.874;2023-12-22T12:20:21;6.68;;;2.42;;
13795;SDS011;40911;51.552;9.874;2023-12-22T12:22:43;5.50;;;2.40;;
13795;SDS011;40911;51.552;9.874;2023-12-22T12:25:09;6.47;;;2.40;;
13795;SDS011;40911;51.552;9.874;2023-12-22T12:27:31;4.50;;;2.30;;
13795;SDS011;40911;51.552;9.874;2023-12-22T12:29:54;4.22;;;2.50;;
13795;SDS011;40911;51.552;9.874;2023-12-22T12:32:16;2.70;;;1.95;;
13795;SDS011;40911;51.552;9.874;2023-12-22T12:34:38;3.85;;;2.53;;
13795;SDS011;40911;51.552;9.874;2023-12-22T12:37:01;5.15;;;2.70;;
13795;SDS011;40911;51.552;9.874;2023-12-22T12:39:23;4.38;;;2.88;;
13795;SDS011;40911;51.552;9.874;2023-12-22T12:41:52;5.20;;;3.05;;
13795;SDS011;40911;51.552;9.874;2023-12-22T12:44:16;3.97;;;2.58;;
13795;SDS011;40911;51.552;9.874;2023-12-22T12:46:38;5.05;;;2.78;;
13795;SDS011;40911;51.552;9.874;2023-12-22T12:49:05;6.05;;;2.80;;
13795;SDS011;40911;51.552;9.874;2023-12-22T12:51:27;7.65;;;2.55;;
13795;SDS011;40911;51.552;9.874;2023-12-22T12:53:49;6.65;;;2.78;;
13795;SDS011;40911;51.552;9.874;2023-12-22T12:56:12;3.80;;;2.88;;
13795;SDS011;40911;51.552;9.874;2023-12-22T12:58:36;6.28;;;2.70;;
13795;SDS011;40911;51.552;9.874;2023-12-22T13:01:06;3.50;;;2.63;;
13795;SDS011;40911;51.552;9.874;2023-12-22T13:03:30;4.50;;;2.85;;
13795;SDS011;40911;51.552;9.874;2023-12-22T13:05:52;4.50;;;2.33;;
13795;SDS011;40911;51.552;9.874;2023-12-22T13:08:14;4.00;;;2.60;;
13795;SDS011;40911;51.552;9.874;2023-12-22T13:10:35;3.42;;;2.63;;
13795;SDS011;40911;51.552;9.874;2023-12-22T13:12:58;4.78;;;2.30;;
13795;SDS011;40911;51.552;9.874;2023-12-22T13:15:21;5.97;;;2.35;;
13795;SDS011;40911;51.552;9.874;2023-12-22T13:17:43;2.47;;;2.20;;
13795;SDS011;40911;51.552;9.874;2023-12-22T13:20:05;2.92;;;2.35;;
13795;SDS011;40911;51.552;9.874;2023-12-22T13:22:27;4.38;;;2.20;;
13795;SDS011;40911;51.552;9.874;2023-12-22T13:24:55;3.63;;;2.42;;
13795;SDS011;40911;51.552;9.874;2023-12-22T13:27:18;3.80;;;2.38;;
13795;SDS011;40911;51.552;9.874;2023-12-22T13:29:42;5.55;;;3.22;;
13795;SDS011;40911;51.552;9.874;2023-12-22T13:32:07;4.30;;;2.50;;
13795;SDS011;40911;51.552;9.874;2023-12-22T13:34:29;3.50;;;2.30;;
13795;SDS011;40911;51.552;9.874;2023-12-22T13:36:50;3.92;;;2.40;;
13795;SDS011;40911;51.552;9.874;2023-12-22T13:41:34;3.38;;;2.20;;
13795;SDS011;40911;51.552;9.874;2023-12-22T13:43:56;2.00;;;1.90;;
13795;SDS011;40911;51.552;9.874;2023-12-22T13:48:40;3.47;;;2.15;;
13795;SDS011;40911;51.552;9.874;2023-12-22T13:51:02;2.58;;;2.20;;
13795;SDS011;40911;51.552;9.874;2023-12-22T13:53:24;3.65;;;2.13;;
13795;SDS011;40911;51.552;9.874;2023-12-22T13:55:53;2.28;;;2.00;;
13795;SDS011;40911;51.552;9.874;2023-12-22T13:58:15;4.32;;;2.13;;
13795;SDS011;40911;51.552;9.874;2023-12-22T14:03:01;3.20;;;2.20;;
13795;SDS011;40911;51.552;9.874;2023-12-22T14:05:24;2.13;;;1.88;;
13795;SDS011;40911;51.552;9.874;2023-12-22T14:07:48;2.33;;;2.20;;
13795;SDS011;40911;51.552;9.874;2023-12-22T14:10:10;4.65;;;2.17;;
13795;SDS011;40911;51.552;9.874;2023-12-22T14:12:32;2.30;;;2.10;;
13795;SDS011;40911;51.552;9.874;2023-12-22T14:14:54;2.00;;;1.90;;
13795;SDS011;40911;51.552;9.874;2023-12-22T14:17:16;2.53;;;2.08;;
13795;SDS011;40911;51.552;9.874;2023-12-22T14:19:39;2.75;;;2.45;;
13795;SDS011;40911;51.552;9.874;2023-12-22T14:22:02;2.10;;;2.00;;
13795;SDS011;40911;51.552;9.874;2023-12-22T14:24:24;2.15;;;2.00;;
13795;SDS011;40911;51.552;9.874;2023-12-22T14:29:13;2.10;;;2.00;;
13795;SDS011;40911;51.552;9.874;2023-12-22T14:31:35;2.00;;;1.90;;
13795;SDS011;40911;51.552;9.874;2023-12-22T14:33:57;2.35;;;2.00;;
13795;SDS011;40911;51.552;9.874;2023-12-22T14:36:19;1.90;;;1.80;;
13795;SDS011;40911;51.552;9.874;2023-12-22T14:38:42;2.67;;;1.90;;
13795;SDS011;40911;51.552;9.874;2023-12-22T14:41:03;2.22;;;2.05;;
13795;SDS011;40911;51.552;9.874;2023-12-22T14:43:25;2.20;;;2.00;;
13795;SDS011;40911;51.552;9.874;2023-12-22T14:48:08;2.08;;;1.98;;
13795;SDS011;40911;51.552;9.874;2023-12-22T14:50:31;2.08;;;1.98;;
13795;SDS011;40911;51.552;9.874;2023-12-22T14:52:52;2.00;;;1.90;;
13795;SDS011;40911;51.552;9.874;2023-12-22T14:57:38;2.20;;;2.10;;
13795;SDS011;40911;51.552;9.874;2023-12-22T15:00:00;2.10;;;2.10;;
13795;SDS011;40911;51.552;9.874;2023-12-22T15:02:22;2.35;;;1.92;;
13795;SDS011;40911;51.552;9.874;2023-12-22T15:04:44;1.95;;;1.85;;
13795;SDS011;40911;51.552;9.874;2023-12-22T15:07:05;2.78;;;1.90;;
13795;SDS011;40911;51.552;9.874;2023-12-22T15:09:27;1.90;;;1.80;;
13795;SDS011;40911;51.552;9.874;2023-12-22T15:14:12;2.10;;;2.00;;
13795;SDS011;40911;51.552;9.874;2023-12-22T15:16:37;2.10;;;2.00;;
13795;SDS011;40911;51.552;9.874;2023-12-22T15:19:00;2.40;;;2.20;;
13795;SDS011;40911;51.552;9.874;2023-12-22T15:23:44;2.40;;;2.20;;
13795;SDS011;40911;51.552;9.874;2023-12-22T15:26:06;2.10;;;2.00;;
13795;SDS011;40911;51.552;9.874;2023-12-22T15:28:29;2.10;;;2.00;;
13795;SDS011;40911;51.552;9.874;2023-12-22T15:30:50;2.03;;;2.00;;
13795;SDS011;40911;51.552;9.874;2023-12-22T15:33:12;2.20;;;2.10;;
13795;SDS011;40911;51.552;9.874;2023-12-22T15:35:35;2.20;;;2.10;;
13795;SDS011;40911;51.552;9.874;2023-12-22T15:37:57;1.80;;;1.80;;
13795;SDS011;40911;51.552;9.874;2023-12-22T15:40:19;2.10;;;2.00;;
13795;SDS011;40911;51.552;9.874;2023-12-22T15:42:41;2.20;;;2.10;;
13795;SDS011;40911;51.552;9.874;2023-12-22T15:45:04;1.80;;;1.80;;
13795;SDS011;40911;51.552;9.874;2023-12-22T15:47:27;1.90;;;1.90;;
13795;SDS011;40911;51.552;9.874;2023-12-22T15:49:48;2.17;;;2.10;;
13795;SDS011;40911;51.552;9.874;2023-12-22T15:52:10;2.78;;;2.08;;
13795;SDS011;40911;51.552;9.874;2023-12-22T15:54:32;2.10;;;2.00;;
13795;SDS011;40911;51.552;9.874;2023-12-22T15:56:54;2.25;;;2.05;;
13795;SDS011;40911;51.552;9.874;2023-12-22T16:01:43;1.98;;;1.88;;
13795;SDS011;40911;51.552;9.874;2023-12-22T16:04:05;2.15;;;2.03;;
13795;SDS011;40911;51.552;9.874;2023-12-22T16:08:48;1.80;;;1.80;;
13795;SDS011;40911;51.552;9.874;2023-12-22T16:11:10;2.05;;;1.95;;